createdAt,value
2018-09-23T00:01:02.388Z,31
2018-09-23T00:02:04.823Z,31
2018-09-23T00:03:07.267Z,31
2018-09-23T00:04:09.717Z,31
2018-09-23T00:05:12.149Z,31
2018-09-23T00:06:14.326Z,31
2018-09-23T00:07:16.756Z,31
2018-09-23T00:08:19.190Z,31
2018-09-23T00:09:21.615Z,31
2018-09-23T00:10:24.045Z,31
2018-09-23T00:11:26.215Z,31.1
2018-09-23T00:12:28.663Z,31.1
2018-09-23T00:13:30.807Z,31.1
2018-09-23T00:14:33.238Z,31.1
2018-09-23T00:15:35.670Z,31.1
2018-09-23T00:16:38.098Z,31.1
2018-09-23T00:17:40.523Z,31.1
2018-09-23T00:18:42.686Z,31.1
2018-09-23T00:19:45.128Z,31.1
2018-09-23T00:20:47.552Z,31.1
2018-09-23T00:21:49.986Z,31.1
2018-09-23T00:22:52.426Z,31.1
2018-09-23T00:23:54.858Z,31.1
2018-09-23T00:24:57.292Z,31.1
2018-09-23T00:25:59.728Z,31.1
2018-09-23T00:27:02.156Z,31.1
2018-09-23T00:28:04.587Z,31.1
2018-09-23T00:29:07.017Z,31.1
2018-09-23T00:30:09.453Z,31.1
2018-09-23T00:31:11.886Z,31.1
2018-09-23T00:32:14.349Z,31.1
2018-09-23T00:33:16.507Z,31.1
2018-09-23T00:34:18.950Z,31.1
2018-09-23T00:35:21.382Z,31.1
2018-09-23T00:36:23.540Z,31.1
2018-09-23T00:37:25.984Z,31.1
2018-09-23T00:38:28.415Z,31.1
2018-09-23T00:39:30.857Z,31.1
2018-09-23T00:40:33.285Z,31.1
2018-09-23T00:41:35.704Z,31.1
2018-09-23T00:42:38.144Z,31.1
2018-09-23T00:43:40.287Z,31.1
2018-09-23T00:44:42.442Z,31.1
2018-09-23T00:45:44.872Z,31.1
2018-09-23T00:46:47.306Z,31.1
2018-09-23T00:47:49.735Z,31.1
2018-09-23T00:48:52.179Z,31.2
2018-09-23T00:49:54.627Z,31.2
2018-09-23T00:50:56.773Z,31.2
2018-09-23T00:51:59.199Z,31.2
2018-09-23T00:53:01.635Z,31.2
2018-09-23T00:54:04.068Z,31.2
2018-09-23T00:55:06.496Z,31.2
2018-09-23T00:56:08.926Z,31.2
2018-09-23T00:57:11.372Z,31.2
2018-09-23T00:58:13.805Z,31.2
2018-09-23T00:59:16.238Z,31.2
2018-09-23T01:00:18.675Z,31.2
2018-09-23T01:01:21.109Z,31.2
2018-09-23T01:02:23.535Z,31.2
2018-09-23T01:03:25.980Z,31.2
2018-09-23T01:04:28.425Z,31.2
2018-09-23T01:05:30.303Z,31.2
2018-09-23T01:06:32.742Z,31.2
2018-09-23T01:07:35.185Z,31.2
2018-09-23T01:08:37.620Z,31.2
2018-09-23T01:09:40.048Z,31.2
2018-09-23T01:10:42.208Z,31.2
2018-09-23T01:11:44.637Z,31.2
2018-09-23T01:12:47.061Z,31.2
2018-09-23T01:13:49.549Z,31.2
2018-09-23T01:14:51.976Z,31.2
2018-09-23T01:15:54.405Z,31.2
2018-09-23T01:16:56.557Z,31.2
2018-09-23T01:17:59.002Z,31.2
2018-09-23T01:19:01.437Z,31.2
2018-09-23T01:20:03.869Z,31.2
2018-09-23T01:21:06.301Z,31.2
2018-09-23T01:22:08.725Z,31.2
2018-09-23T01:23:11.155Z,31.2
2018-09-23T01:24:13.588Z,31.2
2018-09-23T01:25:16.025Z,31.2
2018-09-23T01:26:18.470Z,31.3
2018-09-23T01:27:20.896Z,31.2
2018-09-23T01:28:23.334Z,31.2
2018-09-23T01:29:25.764Z,31.3
2018-09-23T01:30:28.191Z,31.3
2018-09-23T01:31:30.065Z,31.3
2018-09-23T01:32:32.507Z,31.3
2018-09-23T01:33:34.927Z,31.3
2018-09-23T01:34:37.360Z,31.3
2018-09-23T01:35:39.857Z,31.3
2018-09-23T01:36:42.017Z,31.3
2018-09-23T01:37:44.453Z,31.3
2018-09-23T01:38:46.874Z,31.3
2018-09-23T01:39:49.311Z,31.3
2018-09-23T01:40:51.737Z,31.3
2018-09-23T01:41:54.195Z,31.3
2018-09-23T01:42:56.628Z,31.3
2018-09-23T01:43:59.065Z,31.3
2018-09-23T01:45:01.495Z,31.3
2018-09-23T01:46:03.924Z,31.3
2018-09-23T01:47:06.356Z,31.3
2018-09-23T01:48:08.516Z,31.3
2018-09-23T01:49:10.950Z,31.3
2018-09-23T01:50:13.383Z,31.3
2018-09-23T01:51:15.822Z,31.3
2018-09-23T01:52:17.686Z,31.3
2018-09-23T01:53:20.127Z,31.3
2018-09-23T01:54:22.564Z,31.3
2018-09-23T01:55:25.003Z,31.3
2018-09-23T01:56:27.436Z,31.3
2018-09-23T01:57:29.871Z,31.3
2018-09-23T01:58:32.323Z,31.3
2018-09-23T01:59:34.751Z,31.3
2018-09-23T02:00:36.628Z,31.3
2018-09-23T02:01:39.065Z,31.3
2018-09-23T02:02:41.227Z,31.3
2018-09-23T02:03:43.676Z,31.3
2018-09-23T02:04:45.844Z,31.3
2018-09-23T02:05:48.275Z,31.3
2018-09-23T02:06:50.723Z,31.3
2018-09-23T02:07:52.866Z,31.3
2018-09-23T02:08:55.016Z,31.3
2018-09-23T02:09:57.177Z,31.3
2018-09-23T02:10:59.615Z,31.3
2018-09-23T02:12:02.053Z,31.3
2018-09-23T02:13:04.485Z,31.3
2018-09-23T02:14:06.923Z,31.3
2018-09-23T02:15:09.360Z,31.3
2018-09-23T02:16:11.781Z,31.3
2018-09-23T02:17:13.939Z,31.3
2018-09-23T02:18:16.367Z,31.3
2018-09-23T02:19:18.795Z,31.3
2018-09-23T02:20:21.222Z,31.3
2018-09-23T02:21:23.659Z,31.3
2018-09-23T02:22:26.086Z,31.3
2018-09-23T02:23:28.533Z,31.3
2018-09-23T02:24:30.946Z,31.3
2018-09-23T02:25:33.082Z,31.3
2018-09-23T02:26:35.514Z,31.3
2018-09-23T02:27:37.933Z,31.3
2018-09-23T02:28:40.364Z,31.3
2018-09-23T02:29:42.799Z,31.3
2018-09-23T02:30:45.227Z,31.3
2018-09-23T02:31:47.675Z,31.3
2018-09-23T02:32:50.104Z,31.3
2018-09-23T02:33:52.525Z,31.3
2018-09-23T02:34:54.958Z,31.3
2018-09-23T02:35:57.390Z,31.3
2018-09-23T02:36:59.823Z,31.3
2018-09-23T02:38:02.261Z,31.3
2018-09-23T02:39:04.700Z,31.3
2018-09-23T02:40:07.205Z,31.3
2018-09-23T02:41:09.087Z,31.3
2018-09-23T02:42:11.517Z,31.3
2018-09-23T02:43:13.957Z,31.3
2018-09-23T02:44:16.395Z,31.3
2018-09-23T02:45:18.825Z,31.3
2018-09-23T02:46:20.698Z,31.3
2018-09-23T02:47:23.144Z,31.3
2018-09-23T02:48:25.585Z,31.3
2018-09-23T02:49:28.019Z,31.3
2018-09-23T02:50:30.451Z,31.3
2018-09-23T02:51:32.585Z,31.3
2018-09-23T02:52:35.022Z,31.3
2018-09-23T02:53:37.475Z,31.3
2018-09-23T02:54:39.903Z,31.3
2018-09-23T02:55:42.335Z,31.3
2018-09-23T02:56:44.487Z,31.3
2018-09-23T02:57:46.916Z,31.3
2018-09-23T02:58:49.083Z,31.3
2018-09-23T02:59:51.512Z,31.3
2018-09-23T03:00:53.958Z,31.3
2018-09-23T03:01:56.396Z,31.3
2018-09-23T03:02:58.828Z,31.3
2018-09-23T03:04:01.265Z,31.3
2018-09-23T03:05:03.726Z,31.3
2018-09-23T03:06:05.866Z,31.3
2018-09-23T03:07:08.304Z,31.2
2018-09-23T03:08:10.753Z,31.2
2018-09-23T03:09:12.909Z,31.2
2018-09-23T03:10:15.332Z,31.2
2018-09-23T03:11:17.756Z,31.2
2018-09-23T03:12:19.918Z,31.1
2018-09-23T03:13:22.345Z,31.1
2018-09-23T03:14:24.781Z,31.1
2018-09-23T03:15:27.207Z,31.1
2018-09-23T03:16:29.346Z,31.1
2018-09-23T03:17:31.766Z,31.1
2018-09-23T03:18:33.922Z,31
2018-09-23T03:19:36.351Z,31
2018-09-23T03:20:38.777Z,31
2018-09-23T03:21:41.215Z,31
2018-09-23T03:22:43.653Z,31
2018-09-23T03:23:46.107Z,31
2018-09-23T03:24:48.549Z,31
2018-09-23T03:25:50.694Z,31
2018-09-23T03:26:53.125Z,31
2018-09-23T03:27:55.595Z,31
2018-09-23T03:28:58.037Z,31
2018-09-23T03:30:00.468Z,30.9
2018-09-23T03:31:02.608Z,30.9
2018-09-23T03:32:05.065Z,30.9
2018-09-23T03:33:07.515Z,30.9
2018-09-23T03:34:09.944Z,30.9
2018-09-23T03:35:12.365Z,30.9
2018-09-23T03:36:14.793Z,30.9
2018-09-23T03:37:17.226Z,30.9
2018-09-23T03:38:19.655Z,30.9
2018-09-23T03:39:22.106Z,30.9
2018-09-23T03:40:24.531Z,30.9
2018-09-23T03:41:26.994Z,30.9
2018-09-23T03:42:29.426Z,30.9
2018-09-23T03:43:31.856Z,30.9
2018-09-23T03:44:34.289Z,30.9
2018-09-23T03:45:36.723Z,30.8
2018-09-23T03:46:39.156Z,30.8
2018-09-23T03:47:41.592Z,30.8
2018-09-23T03:48:44.021Z,30.8
2018-09-23T03:49:46.445Z,30.8
2018-09-23T03:50:48.884Z,30.8
2018-09-23T03:51:51.318Z,30.8
2018-09-23T03:52:53.750Z,30.8
2018-09-23T03:53:56.177Z,30.8
2018-09-23T03:54:58.601Z,30.8
2018-09-23T03:56:00.762Z,30.8
2018-09-23T03:57:03.198Z,30.8
2018-09-23T03:58:05.795Z,30.8
2018-09-23T03:59:08.537Z,30.8
2018-09-23T04:00:10.972Z,30.8
2018-09-23T04:01:13.398Z,30.8
2018-09-23T04:02:15.829Z,30.8
2018-09-23T04:03:18.268Z,30.8
2018-09-23T04:04:20.707Z,30.8
2018-09-23T04:05:23.138Z,30.8
2018-09-23T04:06:25.568Z,30.8
2018-09-23T04:07:28.025Z,30.8
2018-09-23T04:08:30.467Z,30.8
2018-09-23T04:09:32.898Z,30.8
2018-09-23T04:10:35.325Z,30.7
2018-09-23T04:11:37.760Z,30.7
2018-09-23T04:12:40.211Z,30.7
2018-09-23T04:13:42.652Z,30.7
2018-09-23T04:14:44.812Z,30.7
2018-09-23T04:15:47.254Z,30.7
2018-09-23T04:16:49.688Z,30.7
2018-09-23T04:17:52.119Z,30.7
2018-09-23T04:18:54.543Z,30.7
2018-09-23T04:19:56.710Z,30.7
2018-09-23T04:20:58.868Z,30.7
2018-09-23T04:22:01.294Z,30.7
2018-09-23T04:23:03.735Z,30.7
2018-09-23T04:24:06.157Z,30.7
2018-09-23T04:25:08.607Z,30.7
2018-09-23T04:26:10.764Z,30.7
2018-09-23T04:27:13.204Z,30.7
2018-09-23T04:28:15.629Z,30.7
2018-09-23T04:29:18.053Z,30.7
2018-09-23T04:30:20.489Z,30.7
2018-09-23T04:31:22.918Z,30.7
2018-09-23T04:32:25.346Z,30.7
2018-09-23T04:33:27.776Z,30.7
2018-09-23T04:34:30.211Z,30.7
2018-09-23T04:35:32.368Z,30.7
2018-09-23T04:36:34.804Z,30.7
2018-09-23T04:37:37.231Z,30.7
2018-09-23T04:38:39.667Z,30.7
2018-09-23T04:39:42.098Z,30.7
2018-09-23T04:40:44.534Z,30.7
2018-09-23T04:41:46.978Z,30.7
2018-09-23T04:42:49.406Z,30.7
2018-09-23T04:43:51.846Z,30.7
2018-09-23T04:44:54.433Z,30.7
2018-09-23T04:45:57.063Z,30.7
2018-09-23T04:46:59.497Z,30.7
2018-09-23T04:48:01.937Z,30.7
2018-09-23T04:49:04.363Z,30.7
2018-09-23T04:50:06.797Z,30.7
2018-09-23T04:51:09.237Z,30.7
2018-09-23T04:52:11.385Z,30.7
2018-09-23T04:53:13.815Z,30.7
2018-09-23T04:54:16.244Z,30.7
2018-09-23T04:55:18.985Z,30.7
2018-09-23T04:56:21.478Z,30.7
2018-09-23T04:57:23.628Z,30.7
2018-09-23T04:58:26.057Z,30.7
2018-09-23T04:59:28.195Z,30.7
2018-09-23T05:00:30.629Z,30.7
2018-09-23T05:01:33.056Z,30.7
2018-09-23T05:02:35.487Z,30.7
2018-09-23T05:03:37.923Z,30.6
2018-09-23T05:04:40.355Z,30.6
2018-09-23T05:05:42.786Z,30.6
2018-09-23T05:06:45.213Z,30.6
2018-09-23T05:07:47.681Z,30.6
2018-09-23T05:08:50.106Z,30.6
2018-09-23T05:09:52.535Z,30.6
2018-09-23T05:10:54.971Z,30.6
2018-09-23T05:11:57.414Z,30.6
2018-09-23T05:12:59.878Z,30.6
2018-09-23T05:14:02.363Z,30.6
2018-09-23T05:15:04.825Z,30.6
2018-09-23T05:16:07.257Z,30.6
2018-09-23T05:17:09.686Z,30.6
2018-09-23T05:18:12.128Z,30.6
2018-09-23T05:19:14.278Z,30.6
2018-09-23T05:20:16.441Z,30.6
2018-09-23T05:21:18.596Z,30.6
2018-09-23T05:22:21.026Z,30.6
2018-09-23T05:23:23.543Z,30.6
2018-09-23T05:24:25.707Z,30.6
2018-09-23T05:25:28.128Z,30.6
2018-09-23T05:26:30.555Z,30.6
2018-09-23T05:27:32.721Z,30.6
2018-09-23T05:28:35.173Z,30.6
2018-09-23T05:29:37.594Z,30.6
2018-09-23T05:30:40.028Z,30.6
2018-09-23T05:31:42.457Z,30.6
2018-09-23T05:32:44.886Z,30.6
2018-09-23T05:33:47.322Z,30.6
2018-09-23T05:34:49.477Z,30.6
2018-09-23T05:35:51.910Z,30.6
2018-09-23T05:36:54.348Z,30.6
2018-09-23T05:37:56.780Z,30.6
2018-09-23T05:38:59.207Z,30.6
2018-09-23T05:40:01.345Z,30.6
2018-09-23T05:41:03.771Z,30.6
2018-09-23T05:42:06.211Z,30.6
2018-09-23T05:43:08.354Z,30.6
2018-09-23T05:44:10.956Z,30.6
2018-09-23T05:45:13.378Z,30.6
2018-09-23T05:46:15.826Z,30.6
2018-09-23T05:47:18.257Z,30.6
2018-09-23T05:48:20.686Z,30.6
2018-09-23T05:49:23.128Z,30.6
2018-09-23T05:50:25.314Z,30.6
2018-09-23T05:51:27.752Z,30.6
2018-09-23T05:52:30.177Z,30.6
2018-09-23T05:53:32.341Z,30.6
2018-09-23T05:54:34.770Z,30.6
2018-09-23T05:55:36.925Z,30.6
2018-09-23T05:56:39.364Z,30.6
2018-09-23T05:57:41.525Z,30.6
2018-09-23T05:58:43.958Z,30.6
2018-09-23T05:59:46.388Z,30.6
2018-09-23T06:00:48.833Z,30.6
2018-09-23T06:01:51.258Z,30.6
2018-09-23T06:02:53.689Z,30.6
2018-09-23T06:03:56.117Z,30.6
2018-09-23T06:04:58.552Z,30.6
2018-09-23T06:06:01.003Z,30.6
2018-09-23T06:07:03.432Z,30.6
2018-09-23T06:08:05.872Z,30.6
2018-09-23T06:09:08.297Z,30.6
2018-09-23T06:10:10.728Z,30.6
2018-09-23T06:11:13.418Z,30.5
2018-09-23T06:12:15.953Z,30.5
2018-09-23T06:13:18.393Z,30.5
2018-09-23T06:14:20.866Z,30.5
2018-09-23T06:15:23.284Z,30.5
2018-09-23T06:16:25.724Z,30.5
2018-09-23T06:17:28.162Z,30.5
2018-09-23T06:18:30.791Z,30.5
2018-09-23T06:19:33.491Z,30.5
2018-09-23T06:20:35.929Z,30.5
2018-09-23T06:21:38.361Z,30.5
2018-09-23T06:22:40.797Z,30.5
2018-09-23T06:23:43.238Z,30.5
2018-09-23T06:24:45.685Z,30.5
2018-09-23T06:25:48.136Z,30.5
2018-09-23T06:26:50.567Z,30.5
2018-09-23T06:27:53.015Z,30.5
2018-09-23T06:28:55.457Z,30.5
2018-09-23T06:29:57.628Z,30.5
2018-09-23T06:31:00.069Z,30.5
2018-09-23T06:32:02.496Z,30.5
2018-09-23T06:33:04.917Z,30.5
2018-09-23T06:34:07.508Z,30.5
2018-09-23T06:35:10.111Z,30.5
2018-09-23T06:36:12.581Z,30.5
2018-09-23T06:37:15.003Z,30.5
2018-09-23T06:38:17.443Z,30.5
2018-09-23T06:39:19.883Z,30.5
2018-09-23T06:40:22.328Z,30.5
2018-09-23T06:41:24.789Z,30.5
2018-09-23T06:42:27.210Z,30.5
2018-09-23T06:43:29.698Z,30.5
2018-09-23T06:44:32.129Z,30.5
2018-09-23T06:45:34.584Z,30.5
2018-09-23T06:46:36.818Z,30.5
2018-09-23T06:47:39.060Z,30.5
2018-09-23T06:48:41.510Z,30.5
2018-09-23T06:49:43.959Z,30.5
2018-09-23T06:50:46.388Z,30.5
2018-09-23T06:51:48.821Z,30.5
2018-09-23T06:52:51.251Z,30.5
2018-09-23T06:53:53.684Z,30.5
2018-09-23T06:54:56.119Z,30.5
2018-09-23T06:55:58.548Z,30.5
2018-09-23T06:57:00.799Z,30.5
2018-09-23T06:58:03.478Z,30.5
2018-09-23T06:59:05.907Z,30.5
2018-09-23T07:00:08.354Z,30.4
2018-09-23T07:01:10.525Z,30.5
2018-09-23T07:02:12.966Z,30.5
2018-09-23T07:03:15.395Z,30.5
2018-09-23T07:04:17.823Z,30.4
2018-09-23T07:05:20.249Z,30.4
2018-09-23T07:06:22.676Z,30.4
2018-09-23T07:07:25.123Z,30.5
2018-09-23T07:08:27.554Z,30.4
2018-09-23T07:09:29.983Z,30.5
2018-09-23T07:10:32.631Z,30.5
2018-09-23T07:11:35.059Z,30.4
2018-09-23T07:12:37.490Z,30.5
2018-09-23T07:13:39.922Z,30.4
2018-09-23T07:14:42.358Z,30.4
2018-09-23T07:15:44.245Z,30.4
2018-09-23T07:16:46.701Z,30.4
2018-09-23T07:17:49.271Z,30.5
2018-09-23T07:18:51.793Z,30.4
2018-09-23T07:19:54.254Z,30.4
2018-09-23T07:20:56.705Z,30.4
2018-09-23T07:21:59.152Z,30.4
2018-09-23T07:23:01.600Z,30.4
2018-09-23T07:24:04.565Z,30.4
2018-09-23T07:25:07.418Z,30.4
2018-09-23T07:26:09.863Z,30.4
2018-09-23T07:27:12.300Z,30.4
2018-09-23T07:28:14.738Z,30.4
2018-09-23T07:29:17.177Z,30.4
2018-09-23T07:30:19.600Z,30.4
2018-09-23T07:31:22.044Z,30.4
2018-09-23T07:32:24.544Z,30.4
2018-09-23T07:33:27.018Z,30.4
2018-09-23T07:34:29.533Z,30.4
2018-09-23T07:35:31.994Z,30.4
2018-09-23T07:36:34.448Z,30.4
2018-09-23T07:37:36.880Z,30.4
2018-09-23T07:38:39.315Z,30.4
2018-09-23T07:39:41.967Z,30.4
2018-09-23T07:40:44.439Z,30.4
2018-09-23T07:41:46.887Z,30.4
2018-09-23T07:42:49.331Z,30.4
2018-09-23T07:43:51.768Z,30.4
2018-09-23T07:44:54.198Z,30.4
2018-09-23T07:45:56.646Z,30.4
2018-09-23T07:46:59.084Z,30.4
2018-09-23T07:48:01.520Z,30.4
2018-09-23T07:49:04.097Z,30.4
2018-09-23T07:50:06.272Z,30.4
2018-09-23T07:51:08.406Z,30.4
2018-09-23T07:52:10.839Z,30.4
2018-09-23T07:53:13.045Z,30.4
2018-09-23T07:54:15.480Z,30.4
2018-09-23T07:55:17.915Z,30.4
2018-09-23T07:56:20.423Z,30.4
2018-09-23T07:57:22.924Z,30.4
2018-09-23T07:58:25.376Z,30.4
2018-09-23T07:59:27.821Z,30.4
2018-09-23T08:00:30.009Z,30.4
2018-09-23T08:01:32.444Z,30.4
2018-09-23T08:02:34.875Z,30.4
2018-09-23T08:03:37.623Z,30.4
2018-09-23T08:04:39.799Z,30.4
2018-09-23T08:05:42.240Z,30.4
2018-09-23T08:06:44.686Z,30.4
2018-09-23T08:07:46.592Z,30.4
2018-09-23T08:08:49.016Z,30.4
2018-09-23T08:09:51.450Z,30.4
2018-09-23T08:10:53.608Z,30.4
2018-09-23T08:11:55.767Z,30.4
2018-09-23T08:12:59.058Z,30.4
2018-09-23T08:14:04.296Z,30.4
2018-09-23T08:15:08.586Z,30.4
2018-09-23T08:16:11.048Z,30.4
2018-09-23T08:17:13.647Z,30.4
2018-09-23T08:18:16.157Z,30.4
2018-09-23T08:19:18.894Z,30.4
2018-09-23T08:20:21.899Z,30.4
2018-09-23T08:21:25.118Z,30.4
2018-09-23T08:22:27.556Z,30.4
2018-09-23T08:23:30.000Z,30.4
2018-09-23T08:24:32.441Z,30.4
2018-09-23T08:25:35.066Z,30.4
2018-09-23T08:26:38.179Z,30.4
2018-09-23T08:27:40.899Z,30.4
2018-09-23T08:28:43.366Z,30.4
2018-09-23T08:29:45.832Z,30.4
2018-09-23T08:30:48.383Z,30.4
2018-09-23T08:31:50.848Z,30.4
2018-09-23T08:32:53.353Z,30.4
2018-09-23T08:33:55.918Z,30.4
2018-09-23T08:34:58.352Z,30.4
2018-09-23T08:36:00.777Z,30.4
2018-09-23T08:37:03.271Z,30.4
2018-09-23T08:38:05.719Z,30.4
2018-09-23T08:39:08.193Z,30.4
2018-09-23T08:40:10.083Z,30.4
2018-09-23T08:41:12.521Z,30.4
2018-09-23T08:42:14.691Z,30.4
2018-09-23T08:43:17.351Z,30.4
2018-09-23T08:44:19.927Z,30.4
2018-09-23T08:45:22.370Z,30.4
2018-09-23T08:46:24.805Z,30.4
2018-09-23T08:47:27.244Z,30.4
2018-09-23T08:48:29.850Z,30.4
2018-09-23T08:49:32.314Z,30.4
2018-09-23T08:50:34.775Z,30.4
2018-09-23T08:51:37.267Z,30.4
2018-09-23T08:52:39.693Z,30.4
2018-09-23T08:53:42.139Z,30.4
2018-09-23T08:54:44.588Z,30.4
2018-09-23T08:55:47.032Z,30.4
2018-09-23T08:56:49.471Z,30.4
2018-09-23T08:57:52.205Z,30.4
2018-09-23T08:58:54.460Z,30.4
2018-09-23T08:59:56.896Z,30.4
2018-09-23T09:00:59.377Z,30.4
2018-09-23T09:02:01.816Z,30.4
2018-09-23T09:03:04.258Z,30.4
2018-09-23T09:04:06.688Z,30.4
2018-09-23T09:05:09.114Z,30.4
2018-09-23T09:06:11.275Z,30.4
2018-09-23T09:07:13.730Z,30.4
2018-09-23T09:08:16.182Z,30.4
2018-09-23T09:09:18.625Z,30.4
2018-09-23T09:10:21.048Z,30.4
2018-09-23T09:11:23.545Z,30.4
2018-09-23T09:12:26.019Z,30.4
2018-09-23T09:13:28.458Z,30.4
2018-09-23T09:14:30.887Z,30.4
2018-09-23T09:15:33.331Z,30.4
2018-09-23T09:16:35.769Z,30.4
2018-09-23T09:17:38.239Z,30.4
2018-09-23T09:18:41.283Z,30.4
2018-09-23T09:19:44.634Z,30.4
2018-09-23T09:20:47.070Z,30.4
2018-09-23T09:21:49.227Z,30.4
2018-09-23T09:22:51.679Z,30.4
2018-09-23T09:23:53.833Z,30.4
2018-09-23T09:24:56.271Z,30.4
2018-09-23T09:25:58.712Z,30.4
2018-09-23T09:27:01.361Z,30.4
2018-09-23T09:28:03.900Z,30.4
2018-09-23T09:29:06.348Z,30.4
2018-09-23T09:30:08.825Z,30.4
2018-09-23T09:31:11.293Z,30.4
2018-09-23T09:32:13.762Z,30.4
2018-09-23T09:33:16.077Z,30.4
2018-09-23T09:34:18.514Z,30.4
2018-09-23T09:35:21.184Z,30.4
2018-09-23T09:36:23.695Z,30.4
2018-09-23T09:37:25.854Z,30.4
2018-09-23T09:38:28.705Z,30.4
2018-09-23T09:39:31.320Z,30.4
2018-09-23T09:40:33.776Z,30.4
2018-09-23T09:41:36.216Z,30.4
2018-09-23T09:42:38.660Z,30.4
2018-09-23T09:43:41.103Z,30.4
2018-09-23T09:44:43.534Z,30.4
2018-09-23T09:45:45.697Z,30.4
2018-09-23T09:46:48.173Z,30.4
2018-09-23T09:47:50.314Z,30.4
2018-09-23T09:48:52.760Z,30.4
2018-09-23T09:49:55.213Z,30.4
2018-09-23T09:50:57.649Z,30.4
2018-09-23T09:52:00.084Z,30.4
2018-09-23T09:53:02.520Z,30.4
2018-09-23T09:54:04.966Z,30.4
2018-09-23T09:55:07.414Z,30.4
2018-09-23T09:56:09.856Z,30.4
2018-09-23T09:57:12.310Z,30.4
2018-09-23T09:58:14.757Z,30.4
2018-09-23T09:59:17.192Z,30.4
2018-09-23T10:00:19.629Z,30.4
2018-09-23T10:01:22.089Z,30.5
2018-09-23T10:02:24.529Z,30.4
2018-09-23T10:03:26.682Z,30.5
2018-09-23T10:04:29.112Z,30.4
2018-09-23T10:05:31.566Z,30.4
2018-09-23T10:06:34.008Z,30.5
2018-09-23T10:07:36.437Z,30.5
2018-09-23T10:08:38.620Z,30.5
2018-09-23T10:09:41.051Z,30.5
2018-09-23T10:10:43.503Z,30.5
2018-09-23T10:11:45.936Z,30.5
2018-09-23T10:12:48.378Z,30.5
2018-09-23T10:13:50.879Z,30.5
2018-09-23T10:14:53.291Z,30.5
2018-09-23T10:15:55.733Z,30.5
2018-09-23T10:16:57.892Z,30.5
2018-09-23T10:18:00.347Z,30.5
2018-09-23T10:19:02.816Z,30.5
2018-09-23T10:20:05.264Z,30.5
2018-09-23T10:21:07.717Z,30.6
2018-09-23T10:22:09.903Z,30.6
2018-09-23T10:23:12.617Z,30.6
2018-09-23T10:24:15.414Z,30.6
2018-09-23T10:25:17.851Z,30.6
2018-09-23T10:26:20.298Z,30.6
2018-09-23T10:27:22.501Z,30.6
2018-09-23T10:28:24.931Z,30.6
2018-09-23T10:29:27.365Z,30.6
2018-09-23T10:30:29.832Z,30.6
2018-09-23T10:31:32.412Z,30.6
2018-09-23T10:32:34.980Z,30.6
2018-09-23T10:33:37.446Z,30.6
2018-09-23T10:34:39.611Z,30.6
2018-09-23T10:35:42.047Z,30.6
2018-09-23T10:36:44.490Z,30.6
2018-09-23T10:37:46.624Z,30.6
2018-09-23T10:38:49.076Z,30.6
2018-09-23T10:39:51.518Z,30.6
2018-09-23T10:40:53.957Z,30.6
2018-09-23T10:41:56.397Z,30.6
2018-09-23T10:42:58.830Z,30.6
2018-09-23T10:44:01.270Z,30.6
2018-09-23T10:45:03.732Z,30.6
2018-09-23T10:46:06.173Z,30.6
2018-09-23T10:47:08.602Z,30.6
2018-09-23T10:48:10.761Z,30.6
2018-09-23T10:49:13.234Z,30.6
2018-09-23T10:50:15.685Z,30.6
2018-09-23T10:51:18.129Z,30.6
2018-09-23T10:52:20.556Z,30.6
2018-09-23T10:53:23.018Z,30.6
2018-09-23T10:54:25.444Z,30.6
2018-09-23T10:55:27.407Z,30.6
2018-09-23T10:56:29.940Z,30.6
2018-09-23T10:57:32.170Z,30.7
2018-09-23T10:58:34.598Z,30.6
2018-09-23T10:59:37.299Z,30.7
2018-09-23T11:00:39.490Z,30.7
2018-09-23T11:01:41.928Z,30.7
2018-09-23T11:02:44.374Z,30.7
2018-09-23T11:03:46.821Z,30.7
2018-09-23T11:04:49.264Z,30.7
2018-09-23T11:05:51.705Z,30.7
2018-09-23T11:06:54.139Z,30.7
2018-09-23T11:07:56.581Z,30.7
2018-09-23T11:08:58.739Z,30.7
2018-09-23T11:10:01.171Z,30.7
2018-09-23T11:11:03.604Z,30.7
2018-09-23T11:12:06.042Z,30.7
2018-09-23T11:13:08.203Z,30.7
2018-09-23T11:14:10.648Z,30.7
2018-09-23T11:15:13.182Z,30.7
2018-09-23T11:16:15.671Z,30.7
2018-09-23T11:17:18.108Z,30.7
2018-09-23T11:18:20.577Z,30.7
2018-09-23T11:19:23.004Z,30.7
2018-09-23T11:20:25.455Z,30.7
2018-09-23T11:21:27.890Z,30.7
2018-09-23T11:22:30.340Z,30.7
2018-09-23T11:23:32.994Z,30.7
2018-09-23T11:24:35.489Z,30.7
2018-09-23T11:25:37.669Z,30.7
2018-09-23T11:26:40.099Z,30.7
2018-09-23T11:27:42.545Z,30.7
2018-09-23T11:28:44.987Z,30.7
2018-09-23T11:29:47.441Z,30.7
2018-09-23T11:30:49.945Z,30.7
2018-09-23T11:31:52.308Z,30.7
2018-09-23T11:32:54.753Z,30.8
2018-09-23T11:33:56.921Z,30.7
2018-09-23T11:34:59.360Z,30.8
2018-09-23T11:36:01.802Z,30.7
2018-09-23T11:37:04.240Z,30.8
2018-09-23T11:38:06.676Z,30.8
2018-09-23T11:39:09.116Z,30.8
2018-09-23T11:40:11.557Z,30.8
2018-09-23T11:41:13.990Z,30.8
2018-09-23T11:42:16.416Z,30.8
2018-09-23T11:43:18.852Z,30.8
2018-09-23T11:44:21.036Z,30.8
2018-09-23T11:45:23.497Z,30.8
2018-09-23T11:46:25.935Z,30.8
2018-09-23T11:47:28.398Z,30.8
2018-09-23T11:48:30.574Z,30.8
2018-09-23T11:49:32.739Z,30.8
2018-09-23T11:50:35.191Z,30.8
2018-09-23T11:51:37.657Z,30.8
2018-09-23T11:52:40.089Z,30.8
2018-09-23T11:53:42.234Z,30.8
2018-09-23T11:54:44.678Z,30.8
2018-09-23T11:55:47.122Z,30.8
2018-09-23T11:56:49.567Z,30.8
2018-09-23T11:57:52.033Z,30.8
2018-09-23T11:58:54.416Z,30.8
2018-09-23T11:59:56.955Z,30.8
2018-09-23T12:00:59.394Z,30.8
2018-09-23T12:02:01.877Z,30.8
2018-09-23T12:03:04.376Z,30.8
2018-09-23T12:04:06.854Z,30.8
2018-09-23T12:05:09.298Z,30.9
2018-09-23T12:06:11.458Z,30.9
2018-09-23T12:07:13.906Z,30.9
2018-09-23T12:08:16.352Z,30.9
2018-09-23T12:09:18.800Z,30.9
2018-09-23T12:10:21.329Z,30.9
2018-09-23T12:11:23.878Z,30.9
2018-09-23T12:12:26.325Z,30.9
2018-09-23T12:13:28.775Z,30.9
2018-09-23T12:14:31.342Z,30.9
2018-09-23T12:15:33.891Z,30.9
2018-09-23T12:16:36.443Z,30.9
2018-09-23T12:17:38.881Z,30.9
2018-09-23T12:18:41.310Z,30.9
2018-09-23T12:19:43.752Z,30.9
2018-09-23T12:20:46.202Z,30.9
2018-09-23T12:21:48.375Z,30.9
2018-09-23T12:22:50.835Z,30.9
2018-09-23T12:23:53.272Z,30.9
2018-09-23T12:24:55.714Z,30.9
2018-09-23T12:25:58.541Z,30.9
2018-09-23T12:27:01.346Z,30.9
2018-09-23T12:28:03.524Z,30.9
2018-09-23T12:29:05.972Z,30.9
2018-09-23T12:30:08.407Z,30.9
2018-09-23T12:31:10.836Z,30.9
2018-09-23T12:32:13.301Z,31
2018-09-23T12:33:15.987Z,31
2018-09-23T12:34:18.657Z,31
2018-09-23T12:35:21.097Z,31
2018-09-23T12:36:23.256Z,31
2018-09-23T12:37:25.688Z,31
2018-09-23T12:38:28.118Z,31
2018-09-23T12:39:30.780Z,31
2018-09-23T12:40:33.158Z,31
2018-09-23T12:41:35.631Z,31
2018-09-23T12:42:38.064Z,31
2018-09-23T12:43:40.504Z,31
2018-09-23T12:44:42.959Z,31
2018-09-23T12:45:45.391Z,31.1
2018-09-23T12:46:47.667Z,31.1
2018-09-23T12:47:50.150Z,31.1
2018-09-23T12:48:52.587Z,31.1
2018-09-23T12:49:55.019Z,31.1
2018-09-23T12:50:57.446Z,31.1
2018-09-23T12:51:59.647Z,31.1
2018-09-23T12:53:02.086Z,31.1
2018-09-23T12:54:04.510Z,31.1
2018-09-23T12:55:06.950Z,31
2018-09-23T12:56:09.393Z,31
2018-09-23T12:57:11.829Z,31
2018-09-23T12:58:14.268Z,31
2018-09-23T12:59:16.487Z,31
2018-09-23T13:00:18.927Z,31
2018-09-23T13:01:21.352Z,31
2018-09-23T13:02:23.925Z,31
2018-09-23T13:03:26.449Z,31
2018-09-23T13:04:28.887Z,31
2018-09-23T13:05:31.040Z,31
2018-09-23T13:06:33.521Z,31
2018-09-23T13:07:35.951Z,31
2018-09-23T13:08:38.116Z,31
2018-09-23T13:09:40.565Z,31
2018-09-23T13:10:42.994Z,30.9
2018-09-23T13:11:45.440Z,30.9
2018-09-23T13:12:47.884Z,30.9
2018-09-23T13:13:50.346Z,30.9
2018-09-23T13:14:52.788Z,30.9
2018-09-23T13:15:55.248Z,30.9
2018-09-23T13:16:57.680Z,30.9
2018-09-23T13:18:00.380Z,30.9
2018-09-23T13:19:03.138Z,30.9
2018-09-23T13:20:05.567Z,30.9
2018-09-23T13:21:08.007Z,30.9
2018-09-23T13:22:10.607Z,30.9
2018-09-23T13:23:13.190Z,30.9
2018-09-23T13:24:15.618Z,30.9
2018-09-23T13:25:18.066Z,30.9
2018-09-23T13:26:20.518Z,30.9
2018-09-23T13:27:22.965Z,30.9
2018-09-23T13:28:25.159Z,30.9
2018-09-23T13:29:27.583Z,30.9
2018-09-23T13:30:30.017Z,30.9
2018-09-23T13:31:32.482Z,30.9
2018-09-23T13:32:34.914Z,30.9
2018-09-23T13:33:37.435Z,30.9
2018-09-23T13:34:40.027Z,30.9
2018-09-23T13:35:42.543Z,30.9
2018-09-23T13:36:44.731Z,30.9
2018-09-23T13:37:47.171Z,30.9
2018-09-23T13:38:49.611Z,30.9
2018-09-23T13:39:52.046Z,30.9
2018-09-23T13:40:54.483Z,30.9
2018-09-23T13:41:56.928Z,30.9
2018-09-23T13:42:59.364Z,30.9
2018-09-23T13:44:01.562Z,30.9
2018-09-23T13:45:03.998Z,30.8
2018-09-23T13:46:06.445Z,30.8
2018-09-23T13:47:08.885Z,30.9
2018-09-23T13:48:11.047Z,30.8
2018-09-23T13:49:13.485Z,30.8
2018-09-23T13:50:15.915Z,30.8
2018-09-23T13:51:18.094Z,30.8
2018-09-23T13:52:20.237Z,30.8
2018-09-23T13:53:22.698Z,30.9
2018-09-23T13:54:25.491Z,30.8